Time;durP1;ratioP1;P1;durP2;ratioP2;P2;SDS_P1;SDS_P2;PMS_P1;PMS_P2;Temp;Humidity;BMP_temperature;BMP_pressure;BME280_temperature;BME280_humidity;BME280_pressure;Samples;Min_cycle;Max_cycle;Signal;HPM_P1;HPM_P2
2022/09/01 00:00:50;;;;;;;0.65;0.50;;;24.90;40.80;24.20;101837.00;;;;5108286;27;20043;-66
2022/09/01 00:03:36;;;;;;;1.05;0.40;;;25.00;40.80;24.10;101839.00;;;;5102589;27;20089;-66
2022/09/01 00:06:23;;;;;;;1.10;0.60;;;24.90;40.80;24.10;101833.00;;;;5102313;27;20531;-66
2022/09/01 00:09:14;;;;;;;0.68;0.40;;;24.90;40.70;24.10;101829.00;;;;5122061;27;20497;-66
2022/09/01 00:12:00;;;;;;;2.10;0.40;;;25.00;40.80;24.10;101834.00;;;;5090015;27;20060;-66
2022/09/01 00:14:46;;;;;;;0.60;0.50;;;24.90;40.80;24.10;101836.00;;;;5110931;27;20089;-66
2022/09/01 00:17:33;;;;;;;1.08;0.50;;;24.90;40.80;24.10;101830.00;;;;5114456;27;20046;-66
2022/09/01 00:20:19;;;;;;;1.30;0.47;;;24.90;40.90;24.10;101832.00;;;;5105970;27;20105;-66
2022/09/01 00:23:05;;;;;;;0.82;0.50;;;24.90;40.80;24.10;101835.00;;;;5096263;27;20040;-66
2022/09/01 00:25:52;;;;;;;1.23;0.57;;;24.90;40.90;24.10;101832.00;;;;5104999;28;20086;-66
2022/09/01 00:28:38;;;;;;;0.63;0.40;;;24.90;40.90;24.10;101830.00;;;;5093192;28;20075;-66
2022/09/01 00:31:24;;;;;;;1.17;0.55;;;24.90;40.90;24.10;101837.00;;;;5092344;27;20028;-66
2022/09/01 00:34:10;;;;;;;1.20;0.40;;;24.80;40.80;24.10;101829.00;;;;5113769;27;20047;-66
2022/09/01 00:36:56;;;;;;;0.47;0.43;;;24.90;40.90;24.10;101835.00;;;;5088870;27;20039;-66
2022/09/01 00:39:42;;;;;;;0.60;0.40;;;24.80;40.90;24.00;101837.00;;;;5100924;27;20039;-66
2022/09/01 00:42:28;;;;;;;0.95;0.40;;;24.80;40.90;24.00;101833.00;;;;5112484;27;20035;-66
2022/09/01 00:45:14;;;;;;;0.63;0.47;;;24.80;40.90;24.00;101830.00;;;;5115505;27;20122;-66
2022/09/01 00:48:04;;;;;;;0.50;0.30;;;24.80;40.90;24.00;101832.00;;;;5099687;27;20063;-66
2022/09/01 00:50:50;;;;;;;0.63;0.50;;;24.80;41.00;24.10;101823.00;;;;5109628;27;20082;-66
2022/09/01 00:53:36;;;;;;;4.60;0.50;;;24.80;41.00;24.00;101826.00;;;;5105073;27;20031;-66
2022/09/01 00:56:23;;;;;;;0.85;0.70;;;24.80;41.00;24.00;101824.00;;;;5075045;27;20090;-66
2022/09/01 00:59:10;;;;;;;1.20;0.50;;;24.80;41.00;24.00;101826.00;;;;5103254;27;20038;-66
2022/09/01 01:01:56;;;;;;;1.83;0.70;;;24.80;41.10;24.00;101817.00;;;;5093996;27;20046;-65
2022/09/01 01:04:43;;;;;;;1.00;0.60;;;24.80;41.10;24.00;101821.00;;;;5105149;27;20487;-66
2022/09/01 01:07:29;;;;;;;2.53;0.50;;;24.80;41.10;24.00;101824.00;;;;5110929;27;20265;-66
2022/09/01 01:10:17;;;;;;;0.40;0.30;;;24.80;41.10;24.00;101823.00;;;;5090850;27;20031;-66
2022/09/01 01:13:14;;;;;;;0.68;0.40;;;24.80;41.20;24.00;101818.00;;;;5107081;27;20085;-66
2022/09/01 01:16:02;;;;;;;1.20;0.45;;;24.80;41.20;24.00;101818.00;;;;5107143;27;20416;-66
2022/09/01 01:18:48;;;;;;;1.20;0.40;;;24.80;41.20;24.00;101823.00;;;;5107491;27;20050;-66
2022/09/01 01:24:46;;;;;;;0.77;0.30;;;24.80;41.30;24.00;101821.00;;;;5106425;27;20542;-66
2022/09/01 01:27:33;;;;;;;1.48;0.57;;;24.90;41.30;24.00;101823.00;;;;5108285;27;20038;-66
2022/09/01 01:30:19;;;;;;;0.80;0.40;;;24.80;41.30;24.00;101818.00;;;;5101700;27;20088;-66
2022/09/01 01:33:06;;;;;;;1.10;0.50;;;24.80;41.30;24.00;101820.00;;;;5112800;27;20126;-66
2022/09/01 01:35:52;;;;;;;1.02;0.40;;;24.80;41.30;24.00;101823.00;;;;5104555;27;20453;-66
2022/09/01 01:38:41;;;;;;;0.32;0.30;;;24.70;41.40;24.00;101829.00;;;;5104146;27;20434;-66
2022/09/01 01:41:29;;;;;;;0.50;0.35;;;24.80;41.40;24.00;101834.00;;;;5081708;27;20134;-66
2022/09/01 01:44:27;;;;;;;1.52;0.60;;;24.80;41.40;24.00;101824.00;;;;5108185;27;20043;-66
2022/09/01 01:47:13;;;;;;;0.45;0.32;;;24.70;41.40;24.00;101832.00;;;;5100296;27;20130;-66
2022/09/01 01:49:59;;;;;;;0.93;0.50;;;24.80;41.50;24.00;101829.00;;;;5117356;27;20059;-66
2022/09/01 01:52:46;;;;;;;0.63;0.35;;;24.80;41.50;24.00;101839.00;;;;5118246;27;20043;-66
2022/09/01 01:55:32;;;;;;;0.73;0.40;;;24.80;41.50;24.00;101835.00;;;;5106204;27;20448;-66
2022/09/01 01:58:19;;;;;;;0.60;0.32;;;24.80;41.50;24.00;101828.00;;;;5117051;27;20039;-66
2022/09/01 02:01:06;;;;;;;;;;;24.80;41.50;24.00;101835.00;;;;5119357;27;20118;-66
2022/09/01 02:03:54;;;;;;;0.70;0.50;;;24.80;41.50;24.00;101837.00;;;;5094889;28;19923;-66
2022/09/01 02:06:43;;;;;;;0.60;0.40;;;24.80;41.40;24.00;101827.00;;;;5109433;27;20042;-66
2022/09/01 02:09:29;;;;;;;0.47;0.45;;;24.80;41.30;24.00;101832.00;;;;5116176;27;20042;-66
2022/09/01 02:12:18;;;;;;;0.93;0.40;;;24.80;41.30;24.00;101829.00;;;;5108577;27;20480;-65
2022/09/01 02:15:06;;;;;;;0.40;0.32;;;24.80;41.40;24.00;101838.00;;;;5088075;27;20032;-66
2022/09/01 02:17:59;;;;;;;1.20;0.50;;;24.80;41.40;24.00;101832.00;;;;5119665;27;20073;-66
2022/09/01 02:20:48;;;;;;;0.60;0.30;;;24.70;42.00;24.00;101835.00;;;;5100542;28;20039;-66
2022/09/01 02:23:34;;;;;;;1.25;0.50;;;24.80;41.40;24.00;101831.00;;;;5092379;28;20123;-66
2022/09/01 02:26:21;;;;;;;0.32;0.30;;;24.80;41.30;24.00;101828.00;;;;5101891;27;20035;-66
2022/09/01 02:29:16;;;;;;;0.40;0.28;;;24.80;41.30;24.00;101830.00;;;;5111654;27;20035;-66
2022/09/01 02:32:02;;;;;;;0.50;0.40;;;24.80;41.40;23.90;101823.00;;;;5097738;27;20036;-66
2022/09/01 02:34:52;;;;;;;0.52;0.40;;;24.80;41.30;23.90;101827.00;;;;5125518;27;20473;-66
2022/09/01 02:37:38;;;;;;;0.38;0.30;;;24.80;41.20;23.90;101827.00;;;;5106410;27;20058;-65
2022/09/01 02:40:24;;;;;;;0.80;0.40;;;24.70;41.30;23.90;101825.00;;;;5092311;28;20036;-66
2022/09/01 02:43:10;;;;;;;0.43;0.30;;;24.70;41.20;23.90;101834.00;;;;5116181;27;20031;-66
2022/09/01 02:45:59;;;;;;;1.15;0.38;;;24.70;41.20;23.90;101829.00;;;;5102807;28;20088;-66
2022/09/01 02:48:47;;;;;;;0.60;0.32;;;24.70;41.30;23.90;101821.00;;;;5108809;27;20042;-66
2022/09/01 02:51:33;;;;;;;1.15;0.40;;;24.80;41.30;23.90;101813.00;;;;5103931;28;20048;-66
2022/09/01 02:54:22;;;;;;;4.07;0.47;;;24.70;41.30;23.90;101820.00;;;;5115111;28;20396;-66
2022/09/01 02:57:08;;;;;;;0.43;0.35;;;24.70;41.30;23.90;101822.00;;;;5088284;28;20039;-66
2022/09/01 02:59:57;;;;;;;0.77;0.40;;;24.70;41.30;23.90;101812.00;;;;5119295;28;20046;-66
2022/09/01 03:02:44;;;;;;;1.38;0.30;;;24.70;41.30;23.90;101814.00;;;;5102399;28;20511;-65
2022/09/01 03:05:33;;;;;;;0.50;0.40;;;24.70;41.40;23.90;101815.00;;;;5102154;28;20510;-66
2022/09/01 03:08:19;;;;;;;0.90;0.55;;;24.70;41.40;23.90;101816.00;;;;5099293;28;20127;-66
2022/09/01 03:11:10;;;;;;;0.73;0.32;;;24.60;41.30;23.90;101815.00;;;;5105795;28;20031;-66
2022/09/01 03:13:56;;;;;;;1.23;0.40;;;24.60;41.30;23.80;101814.00;;;;5104280;28;20040;-66
2022/09/01 03:16:42;;;;;;;2.45;0.50;;;24.60;41.30;23.80;101814.00;;;;5099561;28;20063;-66
2022/09/01 03:19:31;;;;;;;0.57;0.35;;;24.60;41.30;23.80;101825.00;;;;5106601;28;20043;-65
2022/09/01 03:22:17;;;;;;;0.68;0.30;;;24.60;41.40;23.80;101824.00;;;;5096540;28;20050;-66
2022/09/01 03:25:03;;;;;;;1.45;0.35;;;24.60;41.40;23.80;101829.00;;;;5110430;28;20047;-66
2022/09/01 03:27:51;;;;;;;0.32;0.32;;;24.60;41.40;23.80;101826.00;;;;5104323;28;20043;-66
2022/09/01 03:30:41;;;;;;;1.10;0.40;;;24.60;41.40;23.80;101833.00;;;;5097129;28;20388;-66
2022/09/01 03:33:27;;;;;;;0.80;0.47;;;24.70;41.50;23.80;101831.00;;;;5096911;28;20089;-66
2022/09/01 03:36:17;;;;;;;0.30;0.28;;;24.60;41.40;23.80;101826.00;;;;5105748;28;20048;-66
2022/09/01 03:39:04;;;;;;;0.95;0.93;;;24.60;41.40;23.80;101832.00;;;;5098217;28;20047;-65
2022/09/01 03:41:50;;;;;;;0.57;0.50;;;24.60;41.50;23.80;101823.00;;;;5106994;28;20442;-66
2022/09/01 03:44:39;;;;;;;0.60;0.30;;;24.60;41.40;23.80;101817.00;;;;5109827;28;20225;-66
2022/09/01 03:47:26;;;;;;;0.35;0.20;;;24.60;41.50;23.80;101820.00;;;;5101421;28;20035;-66
2022/09/01 03:50:19;;;;;;;0.73;0.40;;;24.60;41.50;23.80;101822.00;;;;5112812;28;20118;-66
2022/09/01 03:53:05;;;;;;;0.52;0.30;;;24.50;41.30;23.80;101821.00;;;;5107993;27;20448;-66
2022/09/01 03:55:53;;;;;;;1.15;0.40;;;24.60;41.40;23.80;101818.00;;;;5109840;27;20066;-66
2022/09/01 03:58:43;;;;;;;0.68;0.35;;;24.60;41.50;23.80;101821.00;;;;5117028;27;20077;-66
2022/09/01 04:01:40;;;;;;;0.70;0.40;;;24.50;42.20;23.80;101818.00;;;;5094873;27;20123;-66
2022/09/01 04:04:26;;;;;;;0.30;0.30;;;24.50;41.50;23.70;101819.00;;;;5096304;28;20380;-66
2022/09/01 04:07:12;;;;;;;0.50;0.40;;;24.60;41.60;23.80;101824.00;;;;5118546;27;20035;-66
2022/09/01 04:09:58;;;;;;;0.38;0.20;;;24.50;41.50;23.70;101819.00;;;;5114773;27;20032;-66
2022/09/01 04:12:44;;;;;;;0.70;0.20;;;24.50;41.50;23.70;101819.00;;;;5110005;27;20130;-66
2022/09/01 04:15:33;;;;;;;0.32;0.32;;;24.60;41.60;23.70;101817.00;;;;5102856;27;20047;-66
2022/09/01 04:18:20;;;;;;;0.63;0.35;;;24.60;41.60;23.70;101819.00;;;;5122743;27;20039;-66
2022/09/01 04:21:06;;;;;;;0.65;0.40;;;24.50;41.50;23.70;101821.00;;;;5116799;27;20050;-65
2022/09/01 04:23:56;;;;;;;0.97;0.30;;;24.50;41.50;23.70;101814.00;;;;5109748;27;20039;-66
2022/09/01 04:26:45;;;;;;;0.82;0.38;;;24.50;41.60;23.70;101820.00;;;;5106883;27;20759;-66
2022/09/01 04:29:32;;;;;;;0.98;0.40;;;24.50;41.50;23.70;101816.00;;;;5109239;27;20046;-66
2022/09/01 04:32:20;;;;;;;0.40;0.40;;;24.50;41.60;23.70;101819.00;;;;5107319;27;20101;-66
2022/09/01 04:35:10;;;;;;;0.93;0.50;;;24.50;41.60;23.70;101818.00;;;;5106835;28;20138;-66
2022/09/01 04:37:56;;;;;;;0.75;0.40;;;24.30;41.40;23.70;101820.00;;;;5102558;27;20055;-66
2022/09/01 04:40:42;;;;;;;0.50;0.40;;;24.50;41.60;23.70;101819.00;;;;5107106;28;20461;-66
2022/09/01 04:43:28;;;;;;;1.55;0.40;;;24.50;41.70;23.70;101824.00;;;;5101402;27;20420;-66
2022/09/01 04:46:15;;;;;;;0.75;0.50;;;24.50;41.60;23.70;101823.00;;;;5107259;27;20034;-66
2022/09/01 04:49:08;;;;;;;1.30;0.45;;;24.50;41.70;23.60;101818.00;;;;5108154;27;20491;-65
2022/09/01 04:51:54;;;;;;;0.80;0.32;;;24.40;41.60;23.70;101823.00;;;;5108215;27;20031;-66
2022/09/01 04:54:40;;;;;;;0.47;0.30;;;24.40;41.60;23.60;101823.00;;;;5109142;28;20039;-66
2022/09/01 04:57:28;;;;;;;0.43;0.22;;;24.40;41.60;23.60;101812.00;;;;5106445;27;20040;-66
2022/09/01 05:00:21;;;;;;;0.68;0.40;;;24.40;41.60;23.60;101809.00;;;;5107253;27;20499;-66
2022/09/01 05:03:08;;;;;;;0.90;0.32;;;24.40;41.60;23.60;101814.00;;;;5092227;27;20078;-66
2022/09/01 05:05:54;;;;;;;1.15;0.47;;;24.40;41.60;23.60;101815.00;;;;5095738;28;20047;-66
2022/09/01 05:08:40;;;;;;;0.85;0.68;;;24.40;41.70;23.60;101815.00;;;;5123109;27;20039;-65
2022/09/01 05:11:26;;;;;;;1.40;0.47;;;24.40;41.70;23.60;101815.00;;;;5098639;27;20046;-66
2022/09/01 05:14:13;;;;;;;1.08;0.50;;;24.40;41.60;23.60;101812.00;;;;5107200;27;20067;-66
2022/09/01 05:17:03;;;;;;;0.30;0.30;;;24.30;41.60;23.60;101810.00;;;;5084894;27;20051;-66
2022/09/01 05:19:49;;;;;;;0.85;0.47;;;24.40;41.60;23.60;101814.00;;;;5112124;27;20039;-66
2022/09/01 05:22:38;;;;;;;0.57;0.47;;;24.30;41.60;23.60;101811.00;;;;5097721;27;20048;-66
2022/09/01 05:25:40;;;;;;;1.05;0.70;;;24.40;41.70;23.60;101812.00;;;;5100881;27;20119;-66
2022/09/01 05:28:27;;;;;;;1.15;0.40;;;24.40;41.50;23.60;101811.00;;;;5110699;27;20046;-65
2022/09/01 05:31:18;;;;;;;0.63;0.38;;;24.30;41.50;23.50;101811.00;;;;5105267;27;20665;-67
2022/09/01 05:34:04;;;;;;;2.25;0.60;;;24.30;41.60;23.50;101819.00;;;;5082838;27;20485;-65
2022/09/01 05:36:50;;;;;;;0.95;0.70;;;24.40;41.80;23.50;101822.00;;;;5105409;27;20208;-65
2022/09/01 05:39:36;;;;;;;2.25;0.68;;;24.40;41.60;23.50;101819.00;;;;5101973;27;20059;-66
2022/09/01 05:42:23;;;;;;;0.85;0.43;;;24.30;41.50;23.50;101820.00;;;;5105432;27;20055;-66
2022/09/01 05:45:10;;;;;;;2.10;0.70;;;24.40;41.70;23.50;101819.00;;;;5110741;27;20035;-66
2022/09/01 05:47:58;;;;;;;0.75;0.50;;;24.30;41.60;23.50;101823.00;;;;5103520;27;20031;-66
2022/09/01 05:50:45;;;;;;;1.15;0.47;;;24.30;41.60;23.50;101823.00;;;;5101598;27;20046;-66
2022/09/01 05:53:32;;;;;;;1.13;0.43;;;24.30;41.60;23.50;101822.00;;;;5111792;27;20118;-66
2022/09/01 05:56:19;;;;;;;5.75;0.63;;;24.30;41.60;23.50;101825.00;;;;5102361;27;20117;-66
2022/09/01 05:59:05;;;;;;;1.67;0.45;;;24.30;41.50;23.50;101823.00;;;;5112975;27;20035;-66
2022/09/01 06:01:51;;;;;;;2.78;0.57;;;24.30;41.70;23.60;101834.00;;;;5104407;27;20050;-65
2022/09/01 06:04:42;;;;;;;1.95;0.50;;;24.30;41.60;23.60;101824.00;;;;5090518;27;20052;-66
2022/09/01 06:07:29;;;;;;;1.23;0.50;;;24.10;41.60;23.60;101833.00;;;;5108793;27;20043;-66
2022/09/01 06:10:15;;;;;;;1.20;0.70;;;24.40;41.80;23.60;101827.00;;;;5106724;28;20115;-66
2022/09/01 06:13:01;;;;;;;0.75;0.38;;;24.30;41.70;23.60;101828.00;;;;5101960;27;20074;-66
2022/09/01 06:15:48;;;;;;;1.88;0.68;;;24.30;41.70;23.60;101827.00;;;;5093838;27;20709;-66
2022/09/01 06:18:35;;;;;;;0.90;0.53;;;24.40;41.70;23.60;101827.00;;;;5103738;27;20039;-66
2022/09/01 06:21:23;;;;;;;1.00;0.52;;;24.30;41.90;23.60;101829.00;;;;5112198;27;20035;-65
2022/09/01 06:24:09;;;;;;;0.50;0.40;;;24.30;41.70;23.60;101832.00;;;;5119119;27;20118;-66
2022/09/01 06:26:55;;;;;;;0.82;0.40;;;24.40;41.80;23.60;101824.00;;;;5102173;27;20043;-66
2022/09/01 06:29:41;;;;;;;0.75;0.40;;;24.40;41.80;23.60;101835.00;;;;5092798;28;20118;-66
2022/09/01 06:32:27;;;;;;;2.17;0.47;;;24.40;41.80;23.60;101837.00;;;;5095698;27;20108;-65
2022/09/01 06:35:14;;;;;;;1.85;0.47;;;24.40;41.80;23.60;101839.00;;;;5116937;27;20058;-66
2022/09/01 06:38:01;;;;;;;1.73;0.50;;;24.40;41.80;23.60;101840.00;;;;5104659;27;20112;-66
2022/09/01 06:40:47;;;;;;;1.30;0.50;;;24.50;41.80;23.70;101844.00;;;;5111319;27;20119;-66
2022/09/01 06:43:33;;;;;;;0.63;0.40;;;24.50;41.90;23.70;101841.00;;;;5111571;27;20039;-66
2022/09/01 06:46:20;;;;;;;1.42;0.40;;;24.50;41.80;23.70;101840.00;;;;5118391;27;20049;-66
2022/09/01 06:49:10;;;;;;;0.95;0.40;;;24.50;41.80;23.70;101852.00;;;;5092337;28;20385;-65
2022/09/01 06:51:57;;;;;;;2.55;0.50;;;24.50;41.80;23.70;101843.00;;;;5100922;28;20051;-66
2022/09/01 06:54:43;;;;;;;2.55;0.40;;;24.50;41.80;23.70;101841.00;;;;5092204;28;20050;-66
2022/09/01 06:57:29;;;;;;;1.17;0.43;;;24.50;41.70;23.70;101843.00;;;;5108876;28;20096;-66
2022/09/01 07:00:19;;;;;;;1.38;0.50;;;24.50;41.70;23.70;101839.00;;;;5105213;28;20050;-66
2022/09/01 07:03:08;;;;;;;1.17;0.40;;;24.60;41.70;23.70;101840.00;;;;5106334;28;20087;-66
2022/09/01 07:05:55;;;;;;;6.72;0.40;;;24.60;41.70;23.70;101843.00;;;;5107680;28;20044;-66
2022/09/01 07:08:48;;;;;;;2.75;0.50;;;24.60;41.60;23.70;101842.00;;;;5100845;28;20377;-66
2022/09/01 07:11:35;;;;;;;1.02;0.60;;;24.60;41.60;23.70;101846.00;;;;5090144;28;20032;-65
2022/09/01 07:14:21;;;;;;;1.67;0.47;;;24.60;41.70;23.70;101848.00;;;;5091332;28;20109;-65
2022/09/01 07:17:10;;;;;;;0.70;0.40;;;24.60;41.60;23.80;101853.00;;;;5103331;28;20047;-66
2022/09/01 07:19:57;;;;;;;2.50;0.45;;;24.60;41.70;23.80;101849.00;;;;5097027;28;20040;-66
2022/09/01 07:22:43;;;;;;;1.60;0.30;;;24.60;41.70;23.80;101849.00;;;;5099710;28;20096;-66
2022/09/01 07:25:30;;;;;;;1.20;0.32;;;24.60;41.70;23.80;101844.00;;;;5086815;28;20040;-65
2022/09/01 07:28:17;;;;;;;0.43;0.30;;;24.70;41.70;23.80;101845.00;;;;5105937;27;20396;-66
2022/09/01 07:31:04;;;;;;;0.60;0.45;;;24.70;41.70;23.80;101849.00;;;;5102666;27;20040;-66
2022/09/01 07:33:51;;;;;;;2.40;0.47;;;24.60;41.70;23.80;101846.00;;;;5104856;27;20121;-66
2022/09/01 07:36:38;;;;;;;0.97;0.53;;;24.70;41.70;23.80;101849.00;;;;5077658;28;20185;-66
2022/09/01 07:39:24;;;;;;;;;;;24.70;41.80;23.80;101850.00;;;;5090795;27;20276;-66
2022/09/01 07:42:10;;;;;;;0.52;0.40;;;24.70;41.70;23.80;101840.00;;;;5110560;27;19912;-66
2022/09/01 07:44:57;;;;;;;1.13;0.47;;;24.70;41.60;23.80;101845.00;;;;5114119;27;20142;-66
2022/09/01 07:47:43;;;;;;;0.50;0.30;;;24.70;41.70;23.80;101838.00;;;;5113660;27;20057;-66
2022/09/01 07:50:30;;;;;;;1.23;0.55;;;24.70;41.70;23.80;101842.00;;;;5113853;27;20539;-66
2022/09/01 07:53:18;;;;;;;0.60;0.30;;;24.70;41.80;23.80;101842.00;;;;5095662;27;20504;-66
2022/09/01 07:56:09;;;;;;;0.40;0.20;;;24.70;41.70;23.80;101842.00;;;;5105791;27;20044;-66
2022/09/01 07:58:56;;;;;;;1.42;0.60;;;24.70;41.70;23.80;101850.00;;;;5070700;28;20039;-66
2022/09/01 08:01:42;;;;;;;0.22;0.22;;;24.70;42.40;23.80;101852.00;;;;5104791;27;20036;-66
2022/09/01 08:04:28;;;;;;;2.08;0.63;;;24.80;41.70;23.80;101848.00;;;;5106807;27;20035;-66
2022/09/01 08:07:14;;;;;;;0.95;0.45;;;24.80;41.60;23.80;101852.00;;;;5098291;27;20039;-65
2022/09/01 08:10:01;;;;;;;1.48;0.82;;;24.80;41.70;23.90;101850.00;;;;5100949;27;20032;-66
2022/09/01 08:12:47;;;;;;;2.45;0.45;;;24.80;41.70;23.90;101850.00;;;;5115160;27;20125;-66
2022/09/01 08:15:33;;;;;;;1.10;0.57;;;24.80;41.70;23.90;101851.00;;;;5111646;27;20101;-66
2022/09/01 08:18:19;;;;;;;1.17;0.43;;;24.80;41.60;23.90;101856.00;;;;5112527;27;20039;-66
2022/09/01 08:21:10;;;;;;;0.50;0.30;;;24.80;41.70;23.90;101848.00;;;;5096475;27;20446;-66
2022/09/01 08:23:56;;;;;;;0.82;0.50;;;24.80;41.70;23.90;101857.00;;;;5115124;27;20521;-66
2022/09/01 08:26:42;;;;;;;1.30;0.40;;;24.80;41.60;23.90;101848.00;;;;5110456;27;20485;-66
2022/09/01 08:29:28;;;;;;;1.75;0.38;;;24.80;41.70;23.90;101859.00;;;;5104296;27;20046;-66
2022/09/01 08:32:15;;;;;;;0.68;0.40;;;24.80;41.60;23.90;101857.00;;;;5111606;27;20088;-66
2022/09/01 08:35:01;;;;;;;2.00;0.60;;;24.80;41.70;23.90;101851.00;;;;5109612;27;20435;-66
2022/09/01 08:37:47;;;;;;;1.00;0.55;;;24.80;41.70;23.90;101859.00;;;;5079752;28;20447;-66
2022/09/01 08:40:33;;;;;;;1.52;0.40;;;24.80;41.70;23.90;101852.00;;;;5106707;27;20047;-66
2022/09/01 08:43:50;;;;;;;2.90;0.50;;;24.80;41.70;23.90;101857.00;;;;5091612;27;20039;-66
2022/09/01 08:46:38;;;;;;;1.95;0.43;;;24.80;41.60;23.90;101860.00;;;;5100115;27;20489;-66
2022/09/01 08:49:24;;;;;;;0.68;0.40;;;24.70;41.60;23.90;101848.00;;;;5079061;28;20672;-66
2022/09/01 08:52:19;;;;;;;0.77;0.50;;;24.80;41.70;23.90;101853.00;;;;5082882;27;20043;-66
2022/09/01 08:55:38;;;;;;;0.38;0.38;;;24.80;41.70;23.90;101847.00;;;;5089725;27;20483;-66
2022/09/01 08:58:25;;;;;;;0.52;0.30;;;24.80;41.80;23.90;101853.00;;;;5094166;27;20491;-66
2022/09/01 09:01:26;;;;;;;2.13;0.45;;;24.80;41.70;23.90;101850.00;;;;5102952;27;20079;-66
2022/09/01 09:04:46;;;;;;;1.48;0.40;;;24.80;41.70;23.90;101850.00;;;;5102862;27;20047;-66
2022/09/01 09:07:59;;;;;;;0.60;0.40;;;24.80;41.70;23.90;101857.00;;;;5118570;27;20131;-66
2022/09/01 09:11:09;;;;;;;0.45;0.28;;;24.80;41.70;23.90;101853.00;;;;5090042;28;20382;-66
2022/09/01 09:14:40;;;;;;;0.80;0.30;;;24.80;41.60;23.90;101850.00;;;;5102825;27;20043;-66
2022/09/01 09:17:33;;;;;;;0.93;0.38;;;24.80;41.70;23.90;101844.00;;;;5093967;27;20402;-66
2022/09/01 09:20:19;;;;;;;0.75;0.40;;;24.90;41.60;23.90;101851.00;;;;5073604;27;20094;-66
2022/09/01 09:23:24;;;;;;;0.60;0.38;;;24.80;41.60;23.90;101838.00;;;;5116956;27;20043;-66
2022/09/01 09:26:10;;;;;;;0.55;0.40;;;24.80;41.70;23.90;101845.00;;;;5091378;27;20450;-66
2022/09/01 09:28:56;;;;;;;0.57;0.40;;;24.80;41.60;23.90;101841.00;;;;5122215;27;20136;-66
2022/09/01 09:31:44;;;;;;;0.40;0.40;;;24.80;41.50;23.90;101839.00;;;;5104422;28;20105;-66
2022/09/01 09:34:40;;;;;;;0.38;0.35;;;24.80;41.50;23.90;101826.00;;;;5103203;27;20047;-66
2022/09/01 09:37:28;;;;;;;1.05;0.30;;;24.80;41.60;23.90;101823.00;;;;5065375;27;20097;-66
2022/09/01 09:40:17;;;;;;;0.60;0.30;;;24.80;41.50;23.90;101830.00;;;;5113512;27;20043;-66
2022/09/01 09:43:05;;;;;;;1.00;0.47;;;24.80;41.50;23.90;101827.00;;;;5116880;27;20031;-66
2022/09/01 09:46:22;;;;;;;0.43;0.30;;;24.80;41.40;23.90;101823.00;;;;5090483;28;20048;-66
2022/09/01 09:49:25;;;;;;;0.75;0.40;;;24.90;41.50;23.90;101820.00;;;;5070604;28;20036;-66
2022/09/01 09:52:16;;;;;;;0.57;0.45;;;24.80;41.40;23.90;101821.00;;;;5085693;27;20118;-66
2022/09/01 09:55:17;;;;;;;0.57;0.35;;;24.90;41.50;23.90;101825.00;;;;5099641;28;20063;-66
2022/09/01 09:58:09;;;;;;;1.67;0.50;;;24.90;41.40;23.90;101823.00;;;;5103920;27;20036;-66
2022/09/01 10:01:00;;;;;;;0.93;0.43;;;24.80;41.30;23.90;101821.00;;;;5095618;27;20044;-66
2022/09/01 10:03:49;;;;;;;0.93;0.30;;;24.90;41.40;23.90;101818.00;;;;5114699;27;20066;-66
2022/09/01 10:06:41;;;;;;;1.17;0.50;;;24.90;41.40;23.90;101814.00;;;;5104541;27;20044;-66
2022/09/01 10:09:26;;;;;;;0.50;0.40;;;24.90;41.40;23.90;101806.00;;;;5108360;27;20027;-66
2022/09/01 10:12:12;;;;;;;1.02;0.40;;;24.80;41.30;24.00;101799.00;;;;5099649;27;20122;-66
2022/09/01 10:15:05;;;;;;;0.85;0.50;;;24.90;41.30;23.90;101795.00;;;;5092415;27;20035;-66
2022/09/01 10:17:52;;;;;;;1.50;0.50;;;24.90;41.40;24.00;101796.00;;;;5106065;27;20058;-66
2022/09/01 10:20:38;;;;;;;0.40;0.20;;;24.80;41.20;24.00;101793.00;;;;5107336;27;20126;-66
2022/09/01 10:23:26;;;;;;;0.50;0.30;;;24.90;41.30;24.00;101793.00;;;;5081855;28;20042;-66
2022/09/01 10:26:32;;;;;;;2.40;0.40;;;24.90;41.20;23.90;101786.00;;;;5099856;27;20040;-66
2022/09/01 10:29:39;;;;;;;0.60;0.40;;;24.90;41.20;24.00;101787.00;;;;5082918;27;20044;-66
2022/09/01 10:32:57;;;;;;;0.80;0.40;;;24.90;41.20;24.00;101773.00;;;;5089809;27;20042;-66
2022/09/01 10:35:45;;;;;;;0.22;0.22;;;24.90;41.10;24.00;101783.00;;;;5080577;27;20086;-66
2022/09/01 10:38:31;;;;;;;1.05;0.43;;;24.90;41.00;24.00;101792.00;;;;5091804;27;20038;-66
2022/09/01 10:41:49;;;;;;;2.10;0.40;;;25.00;41.10;24.00;101787.00;;;;5094022;27;20396;-66
2022/09/01 10:44:37;;;;;;;3.30;0.52;;;24.90;41.00;24.00;101785.00;;;;5095131;28;20400;-66
2022/09/01 10:47:32;;;;;;;0.50;0.30;;;24.90;41.00;24.00;101785.00;;;;5092253;28;20076;-66
2022/09/01 10:50:30;;;;;;;1.17;0.52;;;24.90;41.10;24.00;101775.00;;;;5081942;28;20108;-66
2022/09/01 10:53:34;;;;;;;1.00;0.43;;;24.90;41.00;24.00;101773.00;;;;5081740;28;20042;-66
2022/09/01 10:56:26;;;;;;;2.70;0.50;;;24.90;41.00;24.00;101771.00;;;;5105462;28;20532;-66
2022/09/01 10:59:22;;;;;;;1.98;0.38;;;25.00;41.00;24.00;101759.00;;;;5078369;28;20036;-66
2022/09/01 11:02:15;;;;;;;1.50;0.40;;;24.90;40.80;24.00;101760.00;;;;5106882;28;20036;-66
2022/09/01 11:05:00;;;;;;;0.35;0.32;;;25.00;41.00;24.00;101770.00;;;;5092884;27;20044;-66
2022/09/01 11:07:47;;;;;;;0.55;0.43;;;25.00;40.90;24.00;101771.00;;;;5118029;27;20050;-66
2022/09/01 11:11:14;;;;;;;0.52;0.35;;;25.00;40.90;24.00;101770.00;;;;5096975;27;20048;-66
2022/09/01 11:14:00;;;;;;;2.35;0.70;;;25.00;40.80;24.00;101758.00;;;;5080677;27;20106;-65
2022/09/01 11:17:38;;;;;;;1.00;0.25;;;25.00;40.90;24.00;101760.00;;;;5092673;28;20118;-65
2022/09/01 11:20:38;;;;;;;1.48;0.63;;;25.00;40.80;24.00;101753.00;;;;5059439;28;20046;-65
2022/09/01 11:23:33;;;;;;;0.50;0.40;;;25.00;40.70;24.00;101757.00;;;;5076898;28;20127;-65
2022/09/01 11:26:31;;;;;;;1.40;0.55;;;25.00;40.80;24.10;101758.00;;;;5091374;27;20511;-65
2022/09/01 11:29:55;;;;;;;2.30;0.35;;;25.00;40.80;24.00;101758.00;;;;5114498;27;20040;-66
2022/09/01 11:32:41;;;;;;;0.50;0.30;;;25.00;40.80;24.00;101740.00;;;;5092456;28;20114;-65
2022/09/01 11:35:27;;;;;;;0.85;0.50;;;25.00;40.70;24.00;101752.00;;;;5091308;28;20466;-65
2022/09/01 11:38:15;;;;;;;0.40;0.40;;;25.00;40.70;24.00;101748.00;;;;5112048;27;20048;-66
2022/09/01 11:41:01;;;;;;;0.90;0.57;;;25.00;40.80;24.10;101743.00;;;;5090223;27;20040;-65
2022/09/01 11:43:47;;;;;;;1.38;0.22;;;25.00;40.70;24.10;101748.00;;;;5110701;27;20036;-66
2022/09/01 11:46:33;;;;;;;2.72;0.60;;;25.00;40.60;24.10;101738.00;;;;5103156;27;20047;-66
2022/09/01 11:49:36;;;;;;;1.50;0.47;;;25.00;40.60;24.10;101750.00;;;;5097282;27;20035;-66
2022/09/01 11:52:29;;;;;;;0.40;0.30;;;25.00;40.60;24.10;101749.00;;;;5088022;27;20027;-65
2022/09/01 11:55:15;;;;;;;1.65;0.30;;;25.10;40.70;24.10;101742.00;;;;5102750;27;20047;-66
2022/09/01 11:58:01;;;;;;;0.68;0.45;;;25.00;40.70;24.10;101744.00;;;;5077656;27;20043;-66
2022/09/01 12:00:47;;;;;;;0.47;0.30;;;25.00;40.80;24.10;101757.00;;;;5092930;28;20044;-66
2022/09/01 12:03:35;;;;;;;0.65;0.32;;;25.10;40.80;24.10;101744.00;;;;5110739;27;20448;-66
2022/09/01 12:06:24;;;;;;;1.77;0.40;;;25.10;40.60;24.10;101741.00;;;;5109763;27;20093;-66
2022/09/01 12:09:10;;;;;;;0.70;0.32;;;25.10;40.50;24.10;101742.00;;;;5114531;27;20031;-66
2022/09/01 12:11:56;;;;;;;0.30;0.30;;;25.10;40.60;24.10;101739.00;;;;5072130;28;20028;-66
2022/09/01 12:14:42;;;;;;;0.88;0.40;;;25.10;40.50;24.10;101735.00;;;;5081588;28;20040;-66
2022/09/01 12:17:29;;;;;;;0.95;0.40;;;25.10;40.50;24.10;101735.00;;;;5071416;27;20074;-66
2022/09/01 12:20:30;;;;;;;1.88;0.32;;;25.10;40.40;24.10;101732.00;;;;5080705;28;20050;-66
2022/09/01 12:23:33;;;;;;;0.52;0.25;;;25.20;40.60;24.10;101734.00;;;;5113711;27;20130;-66
2022/09/01 12:26:27;;;;;;;0.50;0.30;;;25.20;40.40;24.10;101737.00;;;;5093077;27;20036;-66
2022/09/01 12:29:14;;;;;;;0.60;0.40;;;25.10;40.30;24.10;101742.00;;;;5089848;27;20055;-66